createdAt,value
2019-03-19T00:00:19.079Z,0.70
2019-03-19T00:02:59.191Z,0.80
2019-03-19T00:05:31.598Z,0.70
2019-03-19T00:08:05.482Z,0.70
2019-03-19T00:10:36.157Z,0.60
2019-03-19T00:13:07.664Z,0.60
2019-03-19T00:15:44.596Z,0.50
2019-03-19T00:21:14.011Z,0.60
2019-03-19T00:23:45.655Z,0.50
2019-03-19T00:26:17.192Z,0.50
2019-03-19T00:28:51.418Z,0.50
2019-03-19T00:31:22.213Z,0.50
2019-03-19T00:33:56.726Z,0.40
2019-03-19T00:36:31.305Z,0.40
2019-03-19T00:39:02.427Z,0.30
2019-03-19T00:42:07.054Z,0.30
2019-03-19T00:44:38.745Z,0.30
2019-03-19T00:47:16.558Z,0.30
2019-03-19T00:49:47.270Z,0.30
2019-03-19T00:52:20.502Z,0.20
2019-03-19T00:54:53.382Z,0.20
2019-03-19T00:58:10.943Z,0.20
2019-03-19T01:00:47.187Z,0.10
2019-03-19T01:03:23.096Z,0.20
2019-03-19T01:05:53.811Z,0.20
2019-03-19T01:08:24.574Z,0.20
2019-03-19T01:10:56.925Z,0.20
2019-03-19T01:13:27.773Z,0.20
2019-03-19T01:16:01.046Z,0.20
2019-03-19T01:18:37.758Z,0.30
2019-03-19T01:21:10.708Z,0.20
2019-03-19T01:23:43.490Z,0.20
2019-03-19T01:26:15.940Z,0.10
2019-03-19T01:28:57.626Z,0.10
2019-03-19T01:31:28.455Z,0.00
2019-03-19T01:34:49.479Z,0.00
2019-03-19T01:37:22.488Z,0.10
2019-03-19T01:39:57.214Z,0.00
2019-03-19T01:42:28.025Z,0.00
2019-03-19T01:45:01.798Z,0.10
2019-03-19T01:47:42.795Z,0.00
2019-03-19T01:50:14.297Z,0.10
2019-03-19T02:10:43.693Z,0.10
2019-03-19T02:13:17.759Z,0.10
2019-03-19T02:15:48.506Z,0.00
2019-03-19T02:18:19.207Z,0.00
2019-03-19T02:20:52.667Z,0.00
2019-03-19T02:23:30.246Z,0.00
2019-03-19T02:26:02.388Z,0.00
2019-03-19T02:28:40.783Z,-0.10
2019-03-19T02:31:15.642Z,-0.10
2019-03-19T02:33:56.735Z,-0.10
2019-03-19T02:36:35.347Z,-0.10
2019-03-19T02:39:13.018Z,-0.10
2019-03-19T02:41:46.926Z,-0.10
2019-03-19T02:44:21.094Z,-0.20
2019-03-19T02:46:53.456Z,-0.30
2019-03-19T02:49:24.652Z,-0.30
2019-03-19T02:51:55.465Z,-0.30
2019-03-19T02:54:27.292Z,-0.30
2019-03-19T02:56:58.348Z,-0.40
2019-03-19T02:59:29.419Z,-0.40
2019-03-19T03:02:01.039Z,-0.40
2019-03-19T03:04:35.003Z,-0.30
2019-03-19T03:07:05.972Z,-0.40
2019-03-19T03:09:38.925Z,-0.40
2019-03-19T03:12:13.955Z,-0.40
2019-03-19T03:14:46.390Z,-0.40
2019-03-19T03:17:19.294Z,-0.40
2019-03-19T03:19:53.698Z,-0.40
2019-03-19T03:22:26.535Z,-0.40
2019-03-19T03:24:57.291Z,-0.30
2019-03-19T03:27:32.621Z,-0.30
2019-03-19T03:30:05.814Z,-0.30
2019-03-19T03:32:41.230Z,-0.40
2019-03-19T03:35:15.549Z,-0.40
2019-03-19T03:37:47.974Z,-0.40
2019-03-19T03:40:21.700Z,-0.40
2019-03-19T03:42:53.908Z,-0.40
2019-03-19T03:45:24.660Z,-0.50
2019-03-19T03:47:57.025Z,-0.50
2019-03-19T03:50:27.797Z,-0.50
2019-03-19T03:52:58.464Z,-0.50
2019-03-19T03:55:31.479Z,-0.50
2019-03-19T03:58:03.732Z,-0.50
2019-03-19T04:00:36.180Z,-0.50
2019-03-19T04:03:12.040Z,-0.50
2019-03-19T04:05:45.570Z,-0.60
2019-03-19T04:08:17.462Z,-0.50
2019-03-19T04:10:48.142Z,-0.50
2019-03-19T04:13:21.797Z,-0.50
2019-03-19T04:15:52.488Z,-0.50
2019-03-19T04:18:23.139Z,-0.50
2019-03-19T04:20:54.051Z,-0.50
2019-03-19T04:23:24.713Z,-0.50
2019-03-19T04:25:56.157Z,-0.50
2019-03-19T04:28:29.538Z,-0.50
2019-03-19T04:31:01.961Z,-0.50
2019-03-19T04:33:33.290Z,-0.50
2019-03-19T04:36:04.031Z,-0.50
2019-03-19T04:38:37.461Z,-0.50
2019-03-19T04:41:09.646Z,-0.60
2019-03-19T04:43:43.785Z,-0.60
2019-03-19T04:46:17.510Z,-0.60
2019-03-19T04:48:48.245Z,-0.60
2019-03-19T04:51:20.851Z,-0.60
2019-03-19T04:53:52.858Z,-0.60
2019-03-19T04:56:23.614Z,-0.60
2019-03-19T04:58:57.018Z,-0.60
2019-03-19T05:01:31.360Z,-0.60
2019-03-19T05:04:02.224Z,-0.60
2019-03-19T05:06:33.013Z,-0.60
2019-03-19T05:09:05.122Z,-0.60
2019-03-19T05:11:41.793Z,-0.60
2019-03-19T05:14:12.606Z,-0.60
2019-03-19T05:16:48.402Z,-0.60
2019-03-19T05:19:22.740Z,-0.60
2019-03-19T05:21:53.574Z,-0.60
2019-03-19T05:24:24.947Z,-0.60
2019-03-19T05:26:55.634Z,-0.70
2019-03-19T05:29:27.520Z,-0.60
2019-03-19T05:36:14.109Z,-0.60
2019-03-19T05:39:58.117Z,-0.70
2019-03-19T05:42:34.270Z,-0.70
2019-03-19T05:45:06.825Z,-0.70
2019-03-19T05:47:40.317Z,-0.70
2019-03-19T05:50:12.804Z,-0.70
2019-03-19T05:52:43.823Z,-0.70
2019-03-19T05:55:17.305Z,-0.70
2019-03-19T05:57:50.492Z,-0.70
2019-03-19T06:00:24.647Z,-0.70
2019-03-19T06:02:56.150Z,-0.70
2019-03-19T06:05:30.680Z,-0.70
2019-03-19T06:08:06.890Z,-0.70
2019-03-19T06:10:37.883Z,-0.60
2019-03-19T06:13:09.649Z,-0.60
2019-03-19T06:15:40.472Z,-0.60
2019-03-19T06:18:11.318Z,-0.60
2019-03-19T06:20:42.150Z,-0.50
2019-03-19T06:23:12.972Z,-0.50
2019-03-19T06:25:46.947Z,-0.40
2019-03-19T06:28:19.433Z,-0.30
2019-03-19T06:30:50.240Z,-0.20
2019-03-19T06:33:21.295Z,-0.20
2019-03-19T06:35:54.243Z,-0.10
2019-03-19T06:38:26.308Z,0.00
2019-03-19T06:41:35.081Z,0.20
2019-03-19T06:44:07.729Z,0.40
2019-03-19T06:46:38.565Z,0.60
2019-03-19T06:49:09.305Z,0.90
2019-03-19T06:51:43.127Z,1.10
2019-03-19T06:54:13.935Z,1.30
2019-03-19T06:56:44.670Z,1.40
2019-03-19T06:59:15.446Z,1.60
2019-03-19T07:01:46.699Z,1.70
2019-03-19T07:04:19.018Z,1.80
2019-03-19T07:06:49.869Z,1.90
2019-03-19T07:09:20.605Z,2.10
2019-03-19T07:12:01.403Z,2.20
2019-03-19T07:14:31.548Z,2.30
2019-03-19T07:17:02.330Z,2.30
2019-03-19T07:19:33.042Z,2.40
2019-03-19T07:22:03.735Z,2.50
2019-03-19T07:25:34.470Z,2.60
2019-03-19T07:28:06.400Z,2.70
2019-03-19T07:30:37.140Z,2.80
2019-03-19T07:33:07.997Z,2.90
2019-03-19T07:35:40.389Z,3.00
2019-03-19T07:38:11.247Z,3.10
2019-03-19T07:40:49.686Z,3.10
2019-03-19T07:43:22.219Z,3.20
2019-03-19T07:45:53.625Z,3.20
2019-03-19T07:48:24.372Z,3.30
2019-03-19T07:50:55.186Z,3.40
2019-03-19T07:53:27.877Z,3.40
2019-03-19T07:56:00.301Z,3.50
2019-03-19T07:58:40.513Z,3.60
2019-03-19T08:01:05.747Z,3.70
2019-03-19T08:03:39.240Z,3.80
2019-03-19T08:06:10.030Z,3.90
2019-03-19T08:08:42.550Z,4.00
2019-03-19T08:11:13.475Z,4.10
2019-03-19T08:13:44.267Z,4.10
2019-03-19T08:16:26.798Z,4.20
2019-03-19T08:18:48.961Z,4.30
2019-03-19T08:21:19.773Z,4.30
2019-03-19T08:23:52.006Z,4.40
2019-03-19T08:26:22.723Z,4.50
2019-03-19T08:28:55.597Z,4.50
2019-03-19T08:31:26.131Z,4.60
2019-03-19T08:33:57.136Z,4.70
2019-03-19T08:36:27.954Z,4.80
2019-03-19T08:38:58.862Z,5.10
2019-03-19T08:41:29.761Z,5.30
2019-03-19T08:44:03.490Z,5.60
2019-03-19T08:46:34.205Z,5.80
2019-03-19T08:49:05.002Z,6.00
2019-03-19T08:51:36.112Z,6.20
2019-03-19T08:54:06.975Z,6.50
2019-03-19T08:56:37.808Z,6.70
2019-03-19T08:59:08.525Z,7.00
2019-03-19T09:01:39.270Z,7.10
2019-03-19T09:04:10.335Z,7.60
2019-03-19T09:06:41.607Z,7.90
2019-03-19T09:09:12.691Z,8.10
2019-03-19T09:11:43.471Z,8.40
2019-03-19T09:14:14.255Z,8.60
2019-03-19T09:16:45.060Z,8.50
2019-03-19T09:19:15.871Z,8.40
2019-03-19T09:21:48.169Z,8.60
2019-03-19T09:24:20.600Z,8.90
2019-03-19T09:26:52.485Z,9.30
2019-03-19T09:29:25.384Z,9.40
2019-03-19T09:31:59.316Z,9.30
2019-03-19T09:34:30.064Z,9.10
2019-03-19T09:37:00.770Z,9.20
2019-03-19T09:39:31.733Z,9.50
2019-03-19T09:42:04.168Z,9.60
2019-03-19T09:44:35.050Z,9.70
2019-03-19T09:47:07.264Z,9.80
2019-03-19T09:49:41.789Z,10.00
2019-03-19T09:52:12.659Z,10.00
2019-03-19T09:54:43.453Z,9.80
2019-03-19T09:57:14.213Z,9.60
2019-03-19T09:59:45.041Z,9.80
2019-03-19T10:02:15.918Z,9.80
2019-03-19T10:04:46.703Z,10.10
2019-03-19T10:07:18.035Z,10.20
2019-03-19T10:09:48.843Z,10.30
2019-03-19T10:12:19.642Z,10.30
2019-03-19T10:14:51.719Z,10.60
2019-03-19T10:17:22.571Z,10.90
2019-03-19T10:19:54.587Z,11.30
2019-03-19T10:22:41.646Z,11.30
2019-03-19T10:25:12.529Z,11.20
2019-03-19T10:27:44.675Z,11.00
2019-03-19T10:30:20.336Z,10.90
2019-03-19T10:32:52.486Z,10.90
2019-03-19T10:35:24.195Z,11.10
2019-03-19T10:38:00.525Z,11.50
2019-03-19T10:40:32.565Z,11.50
2019-03-19T10:43:03.897Z,11.40
2019-03-19T10:45:56.813Z,11.50
2019-03-19T10:48:23.065Z,11.90
2019-03-19T10:50:53.842Z,12.20
2019-03-19T10:53:25.720Z,12.30
2019-03-19T10:55:56.422Z,12.00
2019-03-19T10:58:28.814Z,11.90
2019-03-19T11:00:59.601Z,11.90
2019-03-19T11:03:32.464Z,11.80
2019-03-19T11:06:06.546Z,11.90
2019-03-19T11:08:41.612Z,12.20
2019-03-19T11:11:12.829Z,12.00
2019-03-19T11:13:45.178Z,12.10
2019-03-19T11:16:17.927Z,12.30
2019-03-19T11:18:50.404Z,12.00
2019-03-19T11:21:21.126Z,12.00
2019-03-19T11:23:53.174Z,11.90
2019-03-19T11:26:23.934Z,12.10
2019-03-19T11:28:57.290Z,12.50
2019-03-19T11:31:28.137Z,12.30
2019-03-19T11:34:01.994Z,12.00
2019-03-19T11:36:32.790Z,11.70
2019-03-19T11:39:04.396Z,11.60
2019-03-19T11:41:35.081Z,11.40
2019-03-19T11:44:08.290Z,11.60
2019-03-19T11:46:39.085Z,12.00
2019-03-19T11:49:14.944Z,12.60
2019-03-19T11:51:45.830Z,13.00
2019-03-19T11:54:17.589Z,13.10
2019-03-19T11:56:51.069Z,13.20
2019-03-19T11:59:23.790Z,13.30
2019-03-19T12:01:56.117Z,13.60
2019-03-19T12:04:27.085Z,14.30
2019-03-19T12:07:00.062Z,15.20
2019-03-19T12:09:34.030Z,14.60
2019-03-19T12:12:11.592Z,14.30
2019-03-19T12:14:49.129Z,13.90
2019-03-19T12:17:20.856Z,13.60
2019-03-19T12:19:51.759Z,14.70
2019-03-19T12:22:22.597Z,15.20
2019-03-19T12:24:53.801Z,16.10
2019-03-19T12:27:31.418Z,16.90
2019-03-19T12:30:05.205Z,16.80
2019-03-19T12:32:39.442Z,17.20
2019-03-19T12:35:12.407Z,16.10
2019-03-19T12:37:43.128Z,16.30
2019-03-19T12:40:15.606Z,16.50
2019-03-19T12:42:51.461Z,14.80
2019-03-19T12:45:25.819Z,13.90
2019-03-19T12:47:56.565Z,13.50
2019-03-19T12:50:27.385Z,14.70
2019-03-19T12:53:00.106Z,17.20
2019-03-19T12:55:33.592Z,17.60
2019-03-19T12:58:04.324Z,18.40
2019-03-19T13:00:40.148Z,18.40
2019-03-19T13:03:11.082Z,17.60
2019-03-19T13:05:45.079Z,18.00
2019-03-19T13:08:15.889Z,18.80
2019-03-19T13:10:46.717Z,20.40
2019-03-19T13:13:19.515Z,20.70
2019-03-19T13:15:51.395Z,20.20
2019-03-19T13:18:24.808Z,21.00
2019-03-19T13:20:55.701Z,21.80
2019-03-19T13:23:36.734Z,21.40
2019-03-19T13:26:10.059Z,19.10
2019-03-19T13:28:43.214Z,17.50
2019-03-19T13:31:25.930Z,16.10
2019-03-19T13:33:59.557Z,16.10
2019-03-19T13:36:32.377Z,17.10
2019-03-19T13:39:05.737Z,18.60
2019-03-19T13:41:37.918Z,19.20
2019-03-19T13:44:11.192Z,19.40
2019-03-19T13:46:43.777Z,19.60
2019-03-19T13:49:16.850Z,19.20
2019-03-19T13:51:47.730Z,19.00
2019-03-19T13:54:18.488Z,18.60
2019-03-19T13:56:49.646Z,16.90
2019-03-19T13:59:21.548Z,15.10
2019-03-19T14:01:52.278Z,14.00
2019-03-19T14:04:26.408Z,13.40
2019-03-19T14:06:57.939Z,13.00
2019-03-19T14:09:28.726Z,12.60
2019-03-19T14:12:00.654Z,12.30
2019-03-19T14:14:37.005Z,12.20
2019-03-19T14:17:07.770Z,12.00
2019-03-19T14:19:40.453Z,11.90
2019-03-19T14:22:11.101Z,11.80
2019-03-19T14:24:42.854Z,11.70
2019-03-19T14:27:13.776Z,11.70
2019-03-19T14:29:44.642Z,11.70
2019-03-19T14:32:18.370Z,11.70
2019-03-19T14:34:50.363Z,11.60
2019-03-19T14:37:22.913Z,11.50
2019-03-19T14:39:54.295Z,11.50
2019-03-19T14:42:26.483Z,11.50
2019-03-19T14:45:00.202Z,11.40
2019-03-19T14:47:31.990Z,11.40
2019-03-19T14:50:05.693Z,11.30
2019-03-19T14:52:36.485Z,11.30
2019-03-19T14:55:08.233Z,11.20
2019-03-19T14:57:39.394Z,11.20
2019-03-19T15:00:11.937Z,11.20
2019-03-19T15:02:42.736Z,11.10
2019-03-19T15:05:14.199Z,11.10
2019-03-19T15:07:45.178Z,11.20
2019-03-19T15:10:17.663Z,11.20
2019-03-19T15:12:49.786Z,11.20
2019-03-19T15:15:23.319Z,11.20
2019-03-19T15:17:54.047Z,11.10
2019-03-19T15:20:25.014Z,11.10
2019-03-19T15:22:55.871Z,11.20
2019-03-19T15:25:26.718Z,11.20
2019-03-19T15:27:57.443Z,11.20
2019-03-19T15:30:31.748Z,11.30
2019-03-19T15:33:03.157Z,11.30
2019-03-19T15:35:33.979Z,11.40
2019-03-19T15:38:04.726Z,11.40
2019-03-19T15:40:38.278Z,11.50
2019-03-19T15:43:13.382Z,11.60
2019-03-19T15:45:46.193Z,11.50
2019-03-19T15:48:19.204Z,11.40
2019-03-19T15:50:50.589Z,11.40
2019-03-19T15:53:21.474Z,11.50
2019-03-19T15:55:52.282Z,11.50
2019-03-19T15:58:23.147Z,11.50
2019-03-19T16:00:53.969Z,11.70
2019-03-19T16:03:24.716Z,12.80
2019-03-19T16:05:55.501Z,14.30
2019-03-19T16:08:26.302Z,15.70
2019-03-19T16:10:57.071Z,16.70
2019-03-19T16:13:29.173Z,15.80
2019-03-19T16:16:01.356Z,14.10
2019-03-19T16:18:32.083Z,13.20
2019-03-19T16:21:04.629Z,12.80
2019-03-19T16:23:35.360Z,12.50
2019-03-19T16:26:06.266Z,12.20
2019-03-19T16:28:42.118Z,12.00
2019-03-19T16:31:12.977Z,11.90
2019-03-19T16:33:43.748Z,11.70
2019-03-19T16:36:17.030Z,11.60
2019-03-19T16:38:47.846Z,11.60
2019-03-19T16:41:18.737Z,11.50
2019-03-19T16:43:49.490Z,11.50
2019-03-19T16:46:20.330Z,11.40
2019-03-19T16:48:51.103Z,11.40
2019-03-19T16:51:23.413Z,11.30
2019-03-19T16:53:57.102Z,11.30
2019-03-19T16:56:32.382Z,11.20
2019-03-19T16:59:03.141Z,11.20
2019-03-19T17:01:34.021Z,11.10
2019-03-19T17:04:08.024Z,11.10
2019-03-19T17:06:40.973Z,11.00
2019-03-19T17:09:11.958Z,11.00
2019-03-19T17:11:42.792Z,11.00
2019-03-19T17:14:13.561Z,10.90
2019-03-19T17:16:44.346Z,10.90
2019-03-19T17:19:17.335Z,10.80
2019-03-19T17:21:53.340Z,10.70
2019-03-19T17:24:24.074Z,10.60
2019-03-19T17:27:00.231Z,10.50
2019-03-19T17:29:31.026Z,10.50
2019-03-19T17:32:12.914Z,10.40
2019-03-19T17:34:42.935Z,10.40
2019-03-19T17:37:15.702Z,10.30
2019-03-19T17:39:46.477Z,10.20
2019-03-19T17:42:17.408Z,10.20
2019-03-19T17:44:48.211Z,10.10
2019-03-19T17:47:26.005Z,10.00
2019-03-19T17:49:56.754Z,10.00
2019-03-19T17:52:27.641Z,9.90
2019-03-19T17:54:58.491Z,9.80
2019-03-19T17:57:32.650Z,9.70
2019-03-19T18:00:10.835Z,9.60
2019-03-19T18:02:41.695Z,9.50
2019-03-19T18:05:15.700Z,9.50
2019-03-19T18:07:48.106Z,9.40
2019-03-19T18:10:19.074Z,9.20
2019-03-19T18:13:00.466Z,9.10
2019-03-19T18:15:39.323Z,9.00
2019-03-19T18:18:12.745Z,8.80
2019-03-19T18:20:44.847Z,8.70
2019-03-19T18:23:18.613Z,8.60
2019-03-19T18:25:51.733Z,8.50
2019-03-19T18:28:26.062Z,8.40
2019-03-19T18:31:03.804Z,8.30
2019-03-19T18:33:39.878Z,8.30
2019-03-19T18:36:18.440Z,8.20
2019-03-19T18:38:52.186Z,8.20
2019-03-19T18:41:24.921Z,8.20
2019-03-19T18:44:01.747Z,8.10
2019-03-19T18:46:35.494Z,8.10
2019-03-19T18:49:17.092Z,8.10
2019-03-19T18:51:53.546Z,8.00
2019-03-19T18:54:54.335Z,7.90
2019-03-19T18:57:28.346Z,7.90
2019-03-19T19:00:01.859Z,7.80
2019-03-19T19:02:33.266Z,7.70
2019-03-19T19:05:04.286Z,7.60
2019-03-19T19:07:38.686Z,7.60
2019-03-19T19:10:10.916Z,7.60
2019-03-19T19:12:44.687Z,7.60
2019-03-19T19:15:15.763Z,7.50
2019-03-19T19:17:46.480Z,7.40
2019-03-19T19:20:24.843Z,7.30
2019-03-19T19:22:59.619Z,7.30
2019-03-19T19:25:30.355Z,7.30
2019-03-19T19:28:04.840Z,7.20
2019-03-19T19:30:35.895Z,7.20
2019-03-19T19:33:06.779Z,7.20
2019-03-19T19:35:39.912Z,7.10
2019-03-19T19:38:10.809Z,7.10
2019-03-19T19:40:43.491Z,7.00
2019-03-19T19:43:14.547Z,7.00
2019-03-19T19:45:45.494Z,7.00
2019-03-19T19:48:16.400Z,6.90
2019-03-19T19:50:49.677Z,6.90
2019-03-19T19:53:20.895Z,6.90
2019-03-19T19:55:51.951Z,6.90
2019-03-19T19:58:22.889Z,6.90
2019-03-19T20:00:56.245Z,6.80
2019-03-19T20:03:27.076Z,6.80
2019-03-19T20:05:58.047Z,6.70
2019-03-19T20:08:28.927Z,6.70
2019-03-19T20:10:59.733Z,6.60
2019-03-19T20:13:30.658Z,6.50
2019-03-19T20:16:01.730Z,6.50
2019-03-19T20:18:32.644Z,6.50
2019-03-19T20:21:03.378Z,6.50
2019-03-19T20:23:35.128Z,6.40
2019-03-19T20:26:05.962Z,6.40
2019-03-19T20:28:39.331Z,6.30
2019-03-19T20:31:11.094Z,6.30
2019-03-19T20:33:46.121Z,6.20
2019-03-19T20:36:16.923Z,6.20
2019-03-19T20:38:48.854Z,6.20
2019-03-19T20:41:19.691Z,6.10
2019-03-19T20:43:52.361Z,6.10
2019-03-19T20:46:23.093Z,6.00
2019-03-19T20:48:53.822Z,5.90
2019-03-19T20:51:24.589Z,5.90
2019-03-19T20:53:56.857Z,5.80
2019-03-19T20:56:27.618Z,5.70
2019-03-19T20:58:58.590Z,5.70
2019-03-19T21:01:29.758Z,5.60
2019-03-19T21:04:00.786Z,5.60
2019-03-19T21:06:33.571Z,5.50
2019-03-19T21:09:05.954Z,5.50
2019-03-19T21:11:36.850Z,5.40
2019-03-19T21:14:07.868Z,5.40
2019-03-19T21:16:38.688Z,5.40
2019-03-19T21:19:09.446Z,5.40
2019-03-19T21:21:40.839Z,5.30
2019-03-19T21:24:11.686Z,5.30
2019-03-19T21:26:42.378Z,5.20
2019-03-19T21:29:13.140Z,5.20
2019-03-19T21:31:45.415Z,5.10
2019-03-19T21:34:16.309Z,5.10
2019-03-19T21:36:47.416Z,5.10
2019-03-19T21:39:19.294Z,5.00
2019-03-19T21:41:50.930Z,5.00
2019-03-19T21:44:23.204Z,5.00
2019-03-19T21:46:53.987Z,4.90
2019-03-19T21:49:25.113Z,4.90
2019-03-19T21:51:56.044Z,4.80
2019-03-19T21:54:26.746Z,4.80
2019-03-19T21:56:58.286Z,4.80
2019-03-19T21:59:30.852Z,4.80
2019-03-19T22:02:06.851Z,4.80
2019-03-19T22:04:38.988Z,4.80
2019-03-19T22:07:10.450Z,4.80
2019-03-19T22:09:43.997Z,4.80
2019-03-19T22:12:15.127Z,4.80
2019-03-19T22:14:48.288Z,4.70
2019-03-19T22:17:20.251Z,4.70
2019-03-19T22:19:54.067Z,4.70
2019-03-19T22:22:24.909Z,4.70
2019-03-19T22:24:55.962Z,4.60
2019-03-19T22:27:27.239Z,4.60
2019-03-19T22:29:59.454Z,4.60
2019-03-19T22:32:30.133Z,4.60
2019-03-19T22:35:05.071Z,4.60
2019-03-19T22:37:36.154Z,4.50
2019-03-19T22:40:09.246Z,4.50
2019-03-19T22:42:41.056Z,4.50
2019-03-19T22:45:12.920Z,4.40
2019-03-19T22:47:44.290Z,4.40
2019-03-19T22:50:15.941Z,4.40
2019-03-19T22:52:48.337Z,4.40
2019-03-19T22:55:28.523Z,4.40
2019-03-19T22:57:52.684Z,4.40
2019-03-19T23:00:54.221Z,4.40
2019-03-19T23:03:26.893Z,4.40
2019-03-19T23:05:57.689Z,4.40
2019-03-19T23:08:29.661Z,4.40
2019-03-19T23:11:01.749Z,4.50
2019-03-19T23:13:32.947Z,4.50
2019-03-19T23:16:07.605Z,4.60
2019-03-19T23:18:39.141Z,4.70
2019-03-19T23:21:09.986Z,4.70
2019-03-19T23:23:45.727Z,4.70
2019-03-19T23:26:22.333Z,4.70
2019-03-19T23:28:53.246Z,4.60
2019-03-19T23:31:24.049Z,4.50
2019-03-19T23:33:56.467Z,4.50
2019-03-19T23:36:28.477Z,4.50
2019-03-19T23:38:59.221Z,4.40
2019-03-19T23:41:31.049Z,4.40
2019-03-19T23:44:04.349Z,4.30
2019-03-19T23:46:37.391Z,4.30
2019-03-19T23:49:08.184Z,4.30
2019-03-19T23:51:42.745Z,4.30
2019-03-19T23:54:13.706Z,4.30
2019-03-19T23:56:46.965Z,4.40
2019-03-19T23:59:17.687Z,4.40
